createdAt,value
2022-11-09T00:00:09.919Z,100096.00
2022-11-09T00:06:00.540Z,100106.34
2022-11-09T00:08:40.452Z,100102.97
2022-11-09T00:11:15.345Z,100111.66
2022-11-09T00:13:52.137Z,100110.94
2022-11-09T00:16:27.481Z,100105.69
2022-11-09T00:19:29.009Z,100115.25
2022-11-09T00:22:05.209Z,100103.38
2022-11-09T00:24:45.416Z,100104.16
2022-11-09T00:27:23.367Z,100099.88
2022-11-09T00:30:01.458Z,100112.78
2022-11-09T00:35:33.139Z,100091.56
2022-11-09T00:38:19.727Z,100096.88
2022-11-09T00:41:04.916Z,100090.94
2022-11-09T00:44:06.706Z,100095.03
2022-11-09T00:47:01.874Z,100103.56
2022-11-09T00:49:35.513Z,100107.81
2022-11-09T00:52:34.556Z,100095.22
2022-11-09T00:55:46.320Z,100112.22
2022-11-09T00:58:28.333Z,100096.06
2022-11-09T01:01:24.987Z,100106.53
2022-11-09T01:06:45.294Z,100109.00
2022-11-09T01:09:40.765Z,100113.41
2022-11-09T01:12:23.755Z,100115.94
2022-11-09T01:15:20.590Z,100109.03
2022-11-09T01:18:04.413Z,100112.59
2022-11-09T01:20:39.412Z,100118.50
2022-11-09T01:23:09.954Z,100116.84
2022-11-09T01:25:41.171Z,100110.09
2022-11-09T01:28:16.379Z,100119.75
2022-11-09T01:30:56.495Z,100113.81
2022-11-09T01:33:32.232Z,100111.25
2022-11-09T01:39:16.724Z,100117.31
2022-11-09T01:41:56.347Z,100100.09
2022-11-09T01:44:28.803Z,100111.25
2022-11-09T01:47:13.360Z,100107.88
2022-11-09T01:49:51.813Z,100107.94
2022-11-09T01:52:31.062Z,100108.81
2022-11-09T01:55:07.801Z,100106.31
2022-11-09T01:57:55.348Z,100104.69
2022-11-09T02:00:51.978Z,100103.84
2022-11-09T02:03:39.581Z,100084.16
2022-11-09T02:06:17.850Z,100096.22
2022-11-09T02:09:00.699Z,100097.13
2022-11-09T02:11:33.238Z,100098.03
2022-11-09T02:14:50.730Z,100095.56
2022-11-09T02:17:39.918Z,100098.06
2022-11-09T02:20:25.391Z,100103.00
2022-11-09T02:22:59.263Z,100085.97
2022-11-09T02:25:38.509Z,100078.16
2022-11-09T02:28:12.540Z,100091.06
2022-11-09T02:30:58.970Z,100098.78
2022-11-09T02:33:54.401Z,100092.81
2022-11-09T02:36:34.223Z,100098.78
2022-11-09T02:39:18.552Z,100097.94
2022-11-09T02:41:54.319Z,100094.41
2022-11-09T02:44:25.835Z,100096.09
2022-11-09T02:46:57.679Z,100098.66
2022-11-09T02:49:33.913Z,100097.75
2022-11-09T02:52:15.811Z,100089.97
2022-11-09T02:54:55.601Z,100083.81
2022-11-09T02:57:24.831Z,100091.59
2022-11-09T02:59:56.874Z,100071.69
2022-11-09T03:02:39.405Z,100077.81
2022-11-09T03:05:13.458Z,100078.72
2022-11-09T03:07:54.627Z,100077.06
2022-11-09T03:10:27.090Z,100061.66
2022-11-09T03:13:15.199Z,100055.63
2022-11-09T03:16:04.593Z,100061.78
2022-11-09T03:18:44.737Z,100075.44
2022-11-09T03:21:25.320Z,100072.06
2022-11-09T03:23:58.049Z,100071.13
2022-11-09T03:26:35.750Z,100077.25
2022-11-09T03:29:13.721Z,100083.31
2022-11-09T03:31:49.405Z,100074.69
2022-11-09T03:34:27.742Z,100073.00
2022-11-09T03:37:01.812Z,100074.69
2022-11-09T03:39:40.676Z,100068.59
2022-11-09T03:42:10.526Z,100072.88
2022-11-09T03:44:44.718Z,100071.03
2022-11-09T03:47:15.095Z,100065.91
2022-11-09T03:49:46.196Z,100070.13
2022-11-09T03:52:20.616Z,100068.38
2022-11-09T03:54:52.419Z,100071.00
2022-11-09T03:57:23.836Z,100066.72
2022-11-09T03:59:58.777Z,100057.31
2022-11-09T04:02:34.330Z,100060.00
2022-11-09T04:05:06.975Z,100062.66
2022-11-09T04:07:37.829Z,100062.78
2022-11-09T04:10:34.528Z,100061.94
2022-11-09T04:13:13.921Z,100064.53
2022-11-09T04:15:49.891Z,100060.22
2022-11-09T04:18:22.761Z,100067.03
2022-11-09T04:20:54.303Z,100069.56
2022-11-09T04:23:27.741Z,100061.84
2022-11-09T04:26:04.179Z,100068.78
2022-11-09T04:28:37.357Z,100062.81
2022-11-09T04:31:08.735Z,100065.38
2022-11-09T04:33:42.690Z,100063.69
2022-11-09T04:36:16.127Z,100061.91
2022-11-09T04:38:45.568Z,100055.59
2022-11-09T04:41:20.940Z,100059.69
2022-11-09T04:43:56.888Z,100054.50
2022-11-09T04:46:40.896Z,100063.13
2022-11-09T04:49:17.666Z,100057.94
2022-11-09T04:51:47.348Z,100050.25
2022-11-09T04:54:22.763Z,100058.19
2022-11-09T04:56:59.159Z,100052.19
2022-11-09T04:59:28.128Z,100054.75
2022-11-09T05:02:05.967Z,100053.91
2022-11-09T05:04:47.133Z,100056.50
2022-11-09T05:07:29.770Z,100054.59
2022-11-09T05:10:23.856Z,100043.38
2022-11-09T05:13:38.154Z,100046.88
2022-11-09T05:16:29.324Z,100059.63
2022-11-09T05:19:05.533Z,100059.63
2022-11-09T05:21:52.219Z,100042.53
2022-11-09T05:24:47.403Z,100058.88
2022-11-09T05:28:27.023Z,100058.19
2022-11-09T05:31:35.830Z,100068.34
2022-11-09T05:34:46.051Z,100076.00
2022-11-09T05:38:03.359Z,100062.34
2022-11-09T05:41:08.758Z,100067.50
2022-11-09T05:45:07.263Z,100059.94
2022-11-09T05:48:57.956Z,100059.06
2022-11-09T06:00:45.783Z,100056.34
2022-11-09T06:04:23.067Z,100071.78
2022-11-09T06:09:51.613Z,100053.53
2022-11-09T06:16:05.449Z,100054.25
2022-11-09T07:07:11.488Z,100064.72
2022-11-09T07:10:41.151Z,100060.94
2022-11-09T07:22:23.648Z,100059.16
2022-11-09T07:26:05.367Z,100069.47
2022-11-09T07:30:03.902Z,100074.09
2022-11-09T09:51:35.779Z,100032.19
2022-11-09T09:58:24.876Z,100021.53
2022-11-09T10:01:33.588Z,100026.41
2022-11-09T10:08:33.643Z,100025.91
2022-11-09T10:16:32.030Z,100035.78
2022-11-09T11:13:29.380Z,100000.66
2022-11-09T12:35:34.731Z,99990.38
2022-11-09T13:28:26.727Z,100004.84
2022-11-09T15:18:50.782Z,100006.38
2022-11-09T15:21:43.395Z,100010.31
2022-11-09T15:24:46.381Z,99999.53
2022-11-09T15:27:49.328Z,99996.97
2022-11-09T15:30:48.887Z,99999.59
2022-11-09T15:33:51.381Z,100001.41
2022-11-09T15:36:51.999Z,99997.41
2022-11-09T15:39:55.366Z,99994.19
2022-11-09T15:43:11.128Z,100001.28
2022-11-09T15:46:06.972Z,99987.97
2022-11-09T15:49:34.101Z,99999.09
2022-11-09T15:52:27.581Z,99996.75
2022-11-09T15:55:33.868Z,99993.59
2022-11-09T15:58:45.357Z,99998.47
2022-11-09T16:01:57.173Z,100001.38
2022-11-09T16:08:25.723Z,100000.84
2022-11-09T16:11:17.686Z,100006.13
2022-11-09T16:14:41.878Z,100002.72
2022-11-09T16:21:10.540Z,99996.09
2022-11-09T16:24:20.371Z,100001.50
2022-11-09T16:27:43.053Z,99999.25
2022-11-09T16:30:48.246Z,100003.69
2022-11-09T16:34:12.814Z,99993.47
2022-11-09T16:37:19.503Z,99999.53
2022-11-09T16:40:34.489Z,99995.44
2022-11-09T16:43:22.617Z,100003.06
2022-11-09T16:46:50.899Z,99992.78
2022-11-09T16:49:41.309Z,99992.91
2022-11-09T16:52:37.396Z,100009.16
2022-11-09T16:55:34.083Z,100014.47
2022-11-09T16:59:12.507Z,100008.97
2022-11-09T17:02:03.925Z,100007.56
2022-11-09T17:05:08.340Z,99999.03
2022-11-09T17:08:22.574Z,99993.13
2022-11-09T17:11:32.571Z,99998.47
2022-11-09T17:14:47.660Z,100001.31
2022-11-09T17:17:41.017Z,99999.72
2022-11-09T17:20:39.083Z,99989.50
2022-11-09T17:23:34.054Z,99991.53
2022-11-09T17:26:25.121Z,99994.28
2022-11-09T17:29:39.855Z,100002.41
2022-11-09T17:32:38.773Z,99997.47
2022-11-09T17:35:38.161Z,100000.31
2022-11-09T17:38:28.492Z,99998.97
2022-11-09T17:41:18.789Z,99997.47
2022-11-09T17:44:06.687Z,99995.94
2022-11-09T17:47:13.339Z,99998.69
2022-11-09T17:50:08.295Z,99995.44
2022-11-09T17:53:12.298Z,99995.66
2022-11-09T17:56:10.463Z,99993.19
2022-11-09T17:59:02.629Z,99993.31
2022-11-09T18:01:59.135Z,99988.25
2022-11-09T18:04:48.601Z,99984.94
2022-11-09T18:07:59.454Z,99979.91
2022-11-09T18:10:51.674Z,99991.97
2022-11-09T18:13:58.850Z,99986.75
2022-11-09T18:16:55.513Z,99978.25
2022-11-09T18:20:05.713Z,99985.16
2022-11-09T18:23:26.549Z,99970.75
2022-11-09T18:26:56.964Z,99976.72
2022-11-09T18:29:56.336Z,99982.91
2022-11-09T18:32:44.385Z,99988.13
2022-11-09T18:35:34.290Z,99991.63
2022-11-09T18:38:28.976Z,99982.16
2022-11-09T18:41:22.121Z,99982.94
2022-11-09T18:44:14.373Z,99985.56
2022-11-09T18:47:05.587Z,99985.47
2022-11-09T18:49:56.310Z,99984.72
2022-11-09T18:52:59.874Z,99985.56
2022-11-09T18:55:53.894Z,99973.72
2022-11-09T18:58:41.296Z,99999.50
2022-11-09T19:01:31.573Z,100002.25
2022-11-09T19:04:19.784Z,99992.72
2022-11-09T19:07:22.770Z,99988.19
2022-11-09T19:10:16.533Z,99987.91
2022-11-09T19:13:04.558Z,99991.63
2022-11-09T19:15:58.430Z,100006.38
2022-11-09T19:19:03.610Z,100001.25
2022-11-09T19:21:55.632Z,100003.97
2022-11-09T19:24:48.806Z,100006.72
2022-11-09T19:27:38.816Z,100002.44
2022-11-09T19:31:00.490Z,100004.34
2022-11-09T19:33:57.929Z,100000.13
2022-11-09T19:36:50.068Z,100002.84
2022-11-09T19:39:42.863Z,100005.69
2022-11-09T19:42:39.338Z,100007.63
2022-11-09T19:45:34.211Z,100007.69
2022-11-09T19:48:26.002Z,100012.94
2022-11-09T19:51:21.286Z,100006.13
2022-11-09T19:54:18.041Z,100011.47
2022-11-09T19:57:39.634Z,100015.94
2022-11-09T20:00:28.969Z,100019.63
2022-11-09T20:03:19.959Z,100024.94
2022-11-09T20:06:10.566Z,100026.75
2022-11-09T20:09:08.580Z,100029.41
2022-11-09T20:12:15.523Z,100026.00
2022-11-09T20:15:07.261Z,100028.66
2022-11-09T20:17:54.699Z,100024.50
2022-11-09T20:20:44.547Z,100031.63
2022-11-09T20:23:34.652Z,100034.06
2022-11-09T20:26:23.889Z,100035.19
2022-11-09T20:29:13.179Z,100031.72
2022-11-09T20:32:20.429Z,100032.63
2022-11-09T20:35:32.539Z,100019.88
2022-11-09T20:38:30.476Z,100023.47
2022-11-09T20:41:25.211Z,100039.94
2022-11-09T20:44:17.619Z,100035.75
2022-11-09T20:47:09.038Z,100041.88
2022-11-09T20:50:01.800Z,100032.47
2022-11-09T20:52:59.946Z,100030.00
2022-11-09T20:55:59.406Z,100037.16
2022-11-09T20:58:57.395Z,100038.88
2022-11-09T21:01:52.794Z,100030.31
2022-11-09T21:04:46.314Z,100021.00
2022-11-09T21:07:46.093Z,100029.47
2022-11-09T21:10:37.517Z,100010.53
2022-11-09T21:13:33.606Z,100014.66
2022-11-09T21:16:32.491Z,100035.53
2022-11-09T21:19:23.751Z,100026.84
2022-11-09T21:22:21.569Z,100025.13
2022-11-09T21:25:31.535Z,100025.06
2022-11-09T21:28:36.841Z,100034.59
2022-11-09T21:31:27.316Z,100026.88
2022-11-09T21:34:18.679Z,100032.97
2022-11-09T21:37:17.220Z,100028.78
2022-11-09T21:40:05.323Z,100025.31
2022-11-09T21:43:00.462Z,100030.69
2022-11-09T21:45:54.568Z,100018.75
2022-11-09T21:48:54.354Z,100013.63
2022-11-09T21:51:42.422Z,100015.47
2022-11-09T21:54:34.348Z,100012.88
2022-11-09T21:57:21.947Z,100010.31
2022-11-09T22:00:15.816Z,100009.44
2022-11-09T22:03:07.007Z,100019.88
2022-11-09T22:05:54.817Z,100021.56
2022-11-09T22:08:45.370Z,100020.72
2022-11-09T22:11:51.593Z,100025.81
2022-11-09T22:14:57.003Z,100031.03
2022-11-09T22:17:45.070Z,100025.06
2022-11-09T22:20:50.761Z,100020.72
2022-11-09T22:23:55.483Z,100025.81
2022-11-09T22:26:50.126Z,100018.00
2022-11-09T22:29:39.697Z,100027.56
2022-11-09T22:32:27.952Z,100022.34
2022-11-09T22:35:18.588Z,100018.81
2022-11-09T22:38:12.329Z,100023.13
2022-11-09T22:41:07.499Z,100018.84
2022-11-09T22:44:02.507Z,100025.91
2022-11-09T22:46:49.922Z,100021.69
2022-11-09T22:49:39.995Z,100021.75
2022-11-09T22:52:28.786Z,100019.25
2022-11-09T22:55:18.572Z,100019.97
2022-11-09T22:58:05.582Z,100021.03
2022-11-09T23:00:55.299Z,100014.97
2022-11-09T23:03:42.854Z,100011.53
2022-11-09T23:06:32.909Z,100018.59
2022-11-09T23:09:20.514Z,100021.38
2022-11-09T23:12:07.984Z,100022.25
2022-11-09T23:15:12.649Z,100029.19
2022-11-09T23:18:21.851Z,100024.91
2022-11-09T23:21:11.606Z,100029.38
2022-11-09T23:24:01.329Z,100024.28
2022-11-09T23:26:49.343Z,100024.44
2022-11-09T23:29:37.695Z,100021.00
2022-11-09T23:32:27.021Z,100031.41
2022-11-09T23:35:19.259Z,100038.34
2022-11-09T23:38:08.454Z,100026.19
2022-11-09T23:40:55.980Z,100030.56
2022-11-09T23:43:49.496Z,100030.69
2022-11-09T23:46:41.058Z,100036.09
2022-11-09T23:49:29.551Z,100037.00
2022-11-09T23:52:27.444Z,100033.50
2022-11-09T23:55:17.759Z,100033.59
2022-11-09T23:58:11.468Z,100039.69
